sensor_id;sensor_type;location;lat;lon;timestamp;temperature;humidity
33903;DHT22;20194;50.950;5.346;2023-01-25T00:00:16;3.40;16.20
33903;DHT22;20194;50.950;5.346;2023-01-25T00:02:41;3.50;16.80
33903;DHT22;20194;50.950;5.346;2023-01-25T00:05:07;3.60;16.10
33903;DHT22;20194;50.950;5.346;2023-01-25T00:07:34;3.70;13.70
33903;DHT22;20194;50.950;5.346;2023-01-25T00:09:59;3.60;12.10
33903;DHT22;20194;50.950;5.346;2023-01-25T00:12:25;3.40;17.30
33903;DHT22;20194;50.950;5.346;2023-01-25T00:14:51;3.50;17.40
33903;DHT22;20194;50.950;5.346;2023-01-25T00:17:16;3.70;15.50
33903;DHT22;20194;50.950;5.346;2023-01-25T00:19:42;3.60;12.70
33903;DHT22;20194;50.950;5.346;2023-01-25T00:22:08;3.50;14.50
33903;DHT22;20194;50.950;5.346;2023-01-25T00:24:33;3.60;17.50
33903;DHT22;20194;50.950;5.346;2023-01-25T00:27:00;3.80;14.60
33903;DHT22;20194;50.950;5.346;2023-01-25T00:29:26;3.70;14.20
33903;DHT22;20194;50.950;5.346;2023-01-25T00:34:50;3.70;11.40
33903;DHT22;20194;50.950;5.346;2023-01-25T00:37:23;3.60;14.90
33903;DHT22;20194;50.950;5.346;2023-01-25T00:39:50;3.40;15.80
33903;DHT22;20194;50.950;5.346;2023-01-25T00:42:17;3.30;17.70
33903;DHT22;20194;50.950;5.346;2023-01-25T00:44:44;3.20;18.40
33903;DHT22;20194;50.950;5.346;2023-01-25T00:47:10;3.30;20.10
33903;DHT22;20194;50.950;5.346;2023-01-25T00:49:38;3.30;19.80
33903;DHT22;20194;50.950;5.346;2023-01-25T00:52:04;3.40;19.60
33903;DHT22;20194;50.950;5.346;2023-01-25T00:54:30;3.40;18.50
33903;DHT22;20194;50.950;5.346;2023-01-25T00:56:56;3.50;17.90
33903;DHT22;20194;50.950;5.346;2023-01-25T00:59:23;3.40;16.60
33903;DHT22;20194;50.950;5.346;2023-01-25T01:01:49;3.50;20.10
33903;DHT22;20194;50.950;5.346;2023-01-25T01:04:15;3.40;18.80
33903;DHT22;20194;50.950;5.346;2023-01-25T01:06:41;3.30;21.10
33903;DHT22;20194;50.950;5.346;2023-01-25T01:09:11;3.30;19.80
33903;DHT22;20194;50.950;5.346;2023-01-25T01:11:37;3.30;22.70
33903;DHT22;20194;50.950;5.346;2023-01-25T01:14:03;3.00;22.50
33903;DHT22;20194;50.950;5.346;2023-01-25T01:16:29;3.10;23.40
33903;DHT22;20194;50.950;5.346;2023-01-25T01:18:55;3.20;23.10
33903;DHT22;20194;50.950;5.346;2023-01-25T01:21:20;3.30;23.00
33903;DHT22;20194;50.950;5.346;2023-01-25T01:23:46;3.30;20.10
33903;DHT22;20194;50.950;5.346;2023-01-25T01:26:15;3.30;21.80
33903;DHT22;20194;50.950;5.346;2023-01-25T01:28:41;3.50;20.70
33903;DHT22;20194;50.950;5.346;2023-01-25T01:31:13;3.50;19.90
33903;DHT22;20194;50.950;5.346;2023-01-25T01:33:39;3.60;17.20
33903;DHT22;20194;50.950;5.346;2023-01-25T01:36:13;3.50;16.80
33903;DHT22;20194;50.950;5.346;2023-01-25T01:38:40;3.50;17.70
33903;DHT22;20194;50.950;5.346;2023-01-25T01:41:06;3.60;17.50
33903;DHT22;20194;50.950;5.346;2023-01-25T01:43:32;3.60;17.70
33903;DHT22;20194;50.950;5.346;2023-01-25T01:45:59;3.70;18.40
33903;DHT22;20194;50.950;5.346;2023-01-25T01:53:36;3.80;11.90
33903;DHT22;20194;50.950;5.346;2023-01-25T01:56:06;3.70;14.60
33903;DHT22;20194;50.950;5.346;2023-01-25T01:58:35;3.70;14.00
33903;DHT22;20194;50.950;5.346;2023-01-25T02:01:01;3.60;13.70
33903;DHT22;20194;50.950;5.346;2023-01-25T02:03:28;3.50;12.50
33903;DHT22;20194;50.950;5.346;2023-01-25T02:06:04;3.70;17.60
33903;DHT22;20194;50.950;5.346;2023-01-25T02:08:33;3.70;13.30
33903;DHT22;20194;50.950;5.346;2023-01-25T02:11:03;3.90;10.80
33903;DHT22;20194;50.950;5.346;2023-01-25T02:13:29;3.80;12.30
33903;DHT22;20194;50.950;5.346;2023-01-25T02:15:56;3.90;10.70
33903;DHT22;20194;50.950;5.346;2023-01-25T02:18:23;4.00;10.90
33903;DHT22;20194;50.950;5.346;2023-01-25T02:20:51;4.10;9.90
33903;DHT22;20194;50.950;5.346;2023-01-25T02:23:39;4.20;7.80
33903;DHT22;20194;50.950;5.346;2023-01-25T02:26:11;4.10;9.50
33903;DHT22;20194;50.950;5.346;2023-01-25T02:31:05;3.60;14.20
33903;DHT22;20194;50.950;5.346;2023-01-25T02:33:30;3.40;19.60
33903;DHT22;20194;50.950;5.346;2023-01-25T02:36:16;3.60;20.60
33903;DHT22;20194;50.950;5.346;2023-01-25T02:38:53;3.70;18.90
33903;DHT22;20194;50.950;5.346;2023-01-25T02:41:36;3.50;17.10
33903;DHT22;20194;50.950;5.346;2023-01-25T02:44:09;3.50;18.20
33903;DHT22;20194;50.950;5.346;2023-01-25T02:46:37;3.50;18.40
33903;DHT22;20194;50.950;5.346;2023-01-25T02:49:05;3.70;18.30
33903;DHT22;20194;50.950;5.346;2023-01-25T02:51:33;3.80;15.60
33903;DHT22;20194;50.950;5.346;2023-01-25T02:54:01;3.90;14.00
33903;DHT22;20194;50.950;5.346;2023-01-25T02:56:27;3.90;10.70
33903;DHT22;20194;50.950;5.346;2023-01-25T02:58:53;3.90;13.00
33903;DHT22;20194;50.950;5.346;2023-01-25T03:01:19;4.00;10.80
33903;DHT22;20194;50.950;5.346;2023-01-25T03:03:45;3.90;10.40
33903;DHT22;20194;50.950;5.346;2023-01-25T03:06:11;3.80;11.50
33903;DHT22;20194;50.950;5.346;2023-01-25T03:08:37;3.70;11.40
33903;DHT22;20194;50.950;5.346;2023-01-25T03:11:04;3.60;16.60
33903;DHT22;20194;50.950;5.346;2023-01-25T03:13:31;3.70;15.40
33903;DHT22;20194;50.950;5.346;2023-01-25T03:16:05;3.50;14.20
33903;DHT22;20194;50.950;5.346;2023-01-25T03:18:31;3.30;19.60
33903;DHT22;20194;50.950;5.346;2023-01-25T03:21:07;3.40;19.90
33903;DHT22;20194;50.950;5.346;2023-01-25T03:23:33;3.60;17.80
33903;DHT22;20194;50.950;5.346;2023-01-25T03:26:14;3.10;19.40
33903;DHT22;20194;50.950;5.346;2023-01-25T03:28:40;3.10;22.20
33903;DHT22;20194;50.950;5.346;2023-01-25T03:31:08;3.30;22.10
33903;DHT22;20194;50.950;5.346;2023-01-25T03:33:34;3.20;21.60
33903;DHT22;20194;50.950;5.346;2023-01-25T03:36:00;3.10;23.70
33903;DHT22;20194;50.950;5.346;2023-01-25T03:38:27;3.30;21.90
33903;DHT22;20194;50.950;5.346;2023-01-25T03:40:52;3.50;19.90
33903;DHT22;20194;50.950;5.346;2023-01-25T03:43:19;3.70;17.20
33903;DHT22;20194;50.950;5.346;2023-01-25T03:45:49;3.60;15.50
33903;DHT22;20194;50.950;5.346;2023-01-25T03:48:15;3.70;17.20
33903;DHT22;20194;50.950;5.346;2023-01-25T03:50:41;3.60;17.70
33903;DHT22;20194;50.950;5.346;2023-01-25T03:53:24;3.70;14.70
33903;DHT22;20194;50.950;5.346;2023-01-25T03:56:00;3.80;16.40
33903;DHT22;20194;50.950;5.346;2023-01-25T03:58:26;4.00;13.10
33903;DHT22;20194;50.950;5.346;2023-01-25T04:00:57;4.00;9.30
33903;DHT22;20194;50.950;5.346;2023-01-25T04:03:23;4.10;12.00
33903;DHT22;20194;50.950;5.346;2023-01-25T04:05:50;4.00;9.20
33903;DHT22;20194;50.950;5.346;2023-01-25T04:08:17;4.00;10.10
33903;DHT22;20194;50.950;5.346;2023-01-25T04:10:43;3.90;10.40
33903;DHT22;20194;50.950;5.346;2023-01-25T04:13:09;3.50;16.60
33903;DHT22;20194;50.950;5.346;2023-01-25T04:15:35;3.40;19.10
33903;DHT22;20194;50.950;5.346;2023-01-25T04:18:01;3.40;20.30
33903;DHT22;20194;50.950;5.346;2023-01-25T04:20:26;3.50;19.00
33903;DHT22;20194;50.950;5.346;2023-01-25T04:22:52;3.60;17.10
33903;DHT22;20194;50.950;5.346;2023-01-25T04:25:18;3.40;19.50
33903;DHT22;20194;50.950;5.346;2023-01-25T04:27:43;3.40;22.20
33903;DHT22;20194;50.950;5.346;2023-01-25T04:30:10;3.40;21.30
33903;DHT22;20194;50.950;5.346;2023-01-25T04:32:35;3.40;21.00
33903;DHT22;20194;50.950;5.346;2023-01-25T04:35:01;3.30;19.70
33903;DHT22;20194;50.950;5.346;2023-01-25T04:37:27;3.20;25.30
33903;DHT22;20194;50.950;5.346;2023-01-25T04:39:52;3.40;22.70
33903;DHT22;20194;50.950;5.346;2023-01-25T04:42:18;3.60;18.50
33903;DHT22;20194;50.950;5.346;2023-01-25T04:44:44;3.50;20.90
33903;DHT22;20194;50.950;5.346;2023-01-25T04:47:10;3.50;16.70
33903;DHT22;20194;50.950;5.346;2023-01-25T04:49:36;3.00;26.80
33903;DHT22;20194;50.950;5.346;2023-01-25T04:52:02;3.10;27.30
33903;DHT22;20194;50.950;5.346;2023-01-25T04:54:27;3.20;24.30
33903;DHT22;20194;50.950;5.346;2023-01-25T04:56:53;3.30;25.10
33903;DHT22;20194;50.950;5.346;2023-01-25T04:59:19;3.40;23.70
33903;DHT22;20194;50.950;5.346;2023-01-25T05:01:44;3.50;22.10
33903;DHT22;20194;50.950;5.346;2023-01-25T05:04:10;3.60;19.50
33903;DHT22;20194;50.950;5.346;2023-01-25T05:06:36;3.70;19.30
33903;DHT22;20194;50.950;5.346;2023-01-25T05:09:01;3.80;18.20
33903;DHT22;20194;50.950;5.346;2023-01-25T05:11:27;3.70;15.40
33903;DHT22;20194;50.950;5.346;2023-01-25T05:13:53;3.60;18.80
33903;DHT22;20194;50.950;5.346;2023-01-25T05:16:21;3.50;20.40
33903;DHT22;20194;50.950;5.346;2023-01-25T05:18:47;3.20;24.50
33903;DHT22;20194;50.950;5.346;2023-01-25T05:21:12;3.40;23.50
33903;DHT22;20194;50.950;5.346;2023-01-25T05:23:56;3.60;22.10
33903;DHT22;20194;50.950;5.346;2023-01-25T05:26:23;3.60;18.90
33903;DHT22;20194;50.950;5.346;2023-01-25T05:29:08;3.40;20.80
33903;DHT22;20194;50.950;5.346;2023-01-25T05:31:34;3.30;21.60
33903;DHT22;20194;50.950;5.346;2023-01-25T05:34:00;3.50;22.60
33903;DHT22;20194;50.950;5.346;2023-01-25T05:36:26;3.60;19.30
33903;DHT22;20194;50.950;5.346;2023-01-25T05:38:51;3.50;21.10
33903;DHT22;20194;50.950;5.346;2023-01-25T05:41:17;3.60;21.40
33903;DHT22;20194;50.950;5.346;2023-01-25T05:43:46;3.70;18.30
33903;DHT22;20194;50.950;5.346;2023-01-25T05:46:12;3.70;18.90
33903;DHT22;20194;50.950;5.346;2023-01-25T05:48:37;3.40;22.20
33903;DHT22;20194;50.950;5.346;2023-01-25T05:51:04;3.30;23.10
33903;DHT22;20194;50.950;5.346;2023-01-25T05:53:30;3.20;23.10
33903;DHT22;20194;50.950;5.346;2023-01-25T05:55:56;3.30;26.10
33903;DHT22;20194;50.950;5.346;2023-01-25T05:58:21;3.10;25.90
33903;DHT22;20194;50.950;5.346;2023-01-25T06:00:47;3.00;28.20
33903;DHT22;20194;50.950;5.346;2023-01-25T06:03:13;2.90;26.90
33903;DHT22;20194;50.950;5.346;2023-01-25T06:05:38;2.70;29.20
33903;DHT22;20194;50.950;5.346;2023-01-25T06:08:05;2.80;33.00
33903;DHT22;20194;50.950;5.346;2023-01-25T06:10:30;2.90;29.30
33903;DHT22;20194;50.950;5.346;2023-01-25T06:12:57;3.00;29.70
33903;DHT22;20194;50.950;5.346;2023-01-25T06:15:23;3.00;26.60
33903;DHT22;20194;50.950;5.346;2023-01-25T06:17:54;2.80;30.20
33903;DHT22;20194;50.950;5.346;2023-01-25T06:20:20;3.00;28.90
33903;DHT22;20194;50.950;5.346;2023-01-25T06:22:50;3.10;27.40
33903;DHT22;20194;50.950;5.346;2023-01-25T06:25:16;2.80;25.60
33903;DHT22;20194;50.950;5.346;2023-01-25T06:27:42;2.50;34.10
33903;DHT22;20194;50.950;5.346;2023-01-25T06:30:08;2.70;34.50
33903;DHT22;20194;50.950;5.346;2023-01-25T06:32:34;2.90;31.50
33903;DHT22;20194;50.950;5.346;2023-01-25T06:35:00;3.10;28.70
33903;DHT22;20194;50.950;5.346;2023-01-25T06:37:25;2.80;27.70
33903;DHT22;20194;50.950;5.346;2023-01-25T06:39:51;2.50;34.10
33903;DHT22;20194;50.950;5.346;2023-01-25T06:42:17;2.60;37.20
33903;DHT22;20194;50.950;5.346;2023-01-25T06:44:43;2.80;33.10
33903;DHT22;20194;50.950;5.346;2023-01-25T06:47:10;3.00;29.60
33903;DHT22;20194;50.950;5.346;2023-01-25T06:49:36;3.20;29.10
33903;DHT22;20194;50.950;5.346;2023-01-25T06:52:02;3.40;26.20
33903;DHT22;20194;50.950;5.346;2023-01-25T06:54:28;3.40;23.90
33903;DHT22;20194;50.950;5.346;2023-01-25T06:56:54;3.50;25.20
33903;DHT22;20194;50.950;5.346;2023-01-25T06:59:20;3.60;24.20
33903;DHT22;20194;50.950;5.346;2023-01-25T07:01:45;3.70;22.30
33903;DHT22;20194;50.950;5.346;2023-01-25T07:04:11;3.30;20.50
33903;DHT22;20194;50.950;5.346;2023-01-25T07:06:37;3.20;29.60
33903;DHT22;20194;50.950;5.346;2023-01-25T07:09:05;2.90;28.40
33903;DHT22;20194;50.950;5.346;2023-01-25T07:11:30;2.60;36.40
33903;DHT22;20194;50.950;5.346;2023-01-25T07:13:56;2.70;33.70
33903;DHT22;20194;50.950;5.346;2023-01-25T07:16:22;2.40;36.00
33903;DHT22;20194;50.950;5.346;2023-01-25T07:18:48;2.50;38.90
33903;DHT22;20194;50.950;5.346;2023-01-25T07:21:16;2.70;38.00
33903;DHT22;20194;50.950;5.346;2023-01-25T07:23:42;2.80;35.90
33903;DHT22;20194;50.950;5.346;2023-01-25T07:26:20;3.10;32.80
33903;DHT22;20194;50.950;5.346;2023-01-25T07:28:47;3.20;29.30
33903;DHT22;20194;50.950;5.346;2023-01-25T07:31:13;3.30;28.30
33903;DHT22;20194;50.950;5.346;2023-01-25T07:33:39;3.30;24.90
33903;DHT22;20194;50.950;5.346;2023-01-25T07:36:06;3.40;25.20
33903;DHT22;20194;50.950;5.346;2023-01-25T07:38:33;2.70;28.80
33903;DHT22;20194;50.950;5.346;2023-01-25T07:40:59;2.70;37.70
33903;DHT22;20194;50.950;5.346;2023-01-25T07:43:25;2.90;34.40
33903;DHT22;20194;50.950;5.346;2023-01-25T07:45:51;3.20;31.60
33903;DHT22;20194;50.950;5.346;2023-01-25T07:48:18;3.30;28.20
33903;DHT22;20194;50.950;5.346;2023-01-25T07:50:45;3.50;27.30
33903;DHT22;20194;50.950;5.346;2023-01-25T07:53:14;3.30;23.60
33903;DHT22;20194;50.950;5.346;2023-01-25T07:55:40;2.40;31.50
33903;DHT22;20194;50.950;5.346;2023-01-25T07:58:07;1.90;41.80
33903;DHT22;20194;50.950;5.346;2023-01-25T08:00:35;2.20;45.70
33903;DHT22;20194;50.950;5.346;2023-01-25T08:03:00;2.50;42.70
33903;DHT22;20194;50.950;5.346;2023-01-25T08:05:26;2.70;38.80
33903;DHT22;20194;50.950;5.346;2023-01-25T08:07:52;2.90;35.80
33903;DHT22;20194;50.950;5.346;2023-01-25T08:10:18;2.90;32.40
33903;DHT22;20194;50.950;5.346;2023-01-25T08:12:44;3.00;33.20
33903;DHT22;20194;50.950;5.346;2023-01-25T08:15:11;3.10;30.20
33903;DHT22;20194;50.950;5.346;2023-01-25T08:17:37;3.10;30.60
33903;DHT22;20194;50.950;5.346;2023-01-25T08:20:03;3.10;26.90
33903;DHT22;20194;50.950;5.346;2023-01-25T08:22:29;3.00;28.60
33903;DHT22;20194;50.950;5.346;2023-01-25T08:24:55;2.80;29.50
33903;DHT22;20194;50.950;5.346;2023-01-25T08:27:21;2.80;32.70
33903;DHT22;20194;50.950;5.346;2023-01-25T08:29:47;2.90;31.90
33903;DHT22;20194;50.950;5.346;2023-01-25T08:32:15;3.00;28.80
33903;DHT22;20194;50.950;5.346;2023-01-25T08:34:41;3.20;31.00
33903;DHT22;20194;50.950;5.346;2023-01-25T08:37:06;3.30;28.30
33903;DHT22;20194;50.950;5.346;2023-01-25T08:39:32;3.30;23.40
33903;DHT22;20194;50.950;5.346;2023-01-25T08:41:58;3.00;28.90
33903;DHT22;20194;50.950;5.346;2023-01-25T08:44:24;3.00;28.70
33903;DHT22;20194;50.950;5.346;2023-01-25T08:46:51;2.90;28.30
33903;DHT22;20194;50.950;5.346;2023-01-25T08:49:17;2.50;38.90
33903;DHT22;20194;50.950;5.346;2023-01-25T08:51:43;2.50;37.90
33903;DHT22;20194;50.950;5.346;2023-01-25T08:54:11;2.80;36.10
33903;DHT22;20194;50.950;5.346;2023-01-25T08:56:39;2.70;34.80
33903;DHT22;20194;50.950;5.346;2023-01-25T08:59:05;2.80;34.40
33903;DHT22;20194;50.950;5.346;2023-01-25T09:01:31;3.00;32.50
33903;DHT22;20194;50.950;5.346;2023-01-25T09:03:57;3.00;29.40
33903;DHT22;20194;50.950;5.346;2023-01-25T09:06:23;3.00;29.20
33903;DHT22;20194;50.950;5.346;2023-01-25T09:08:48;3.00;29.90
33903;DHT22;20194;50.950;5.346;2023-01-25T09:11:17;3.00;28.00
33903;DHT22;20194;50.950;5.346;2023-01-25T09:13:43;2.70;30.00
33903;DHT22;20194;50.950;5.346;2023-01-25T09:16:13;2.70;32.80
33903;DHT22;20194;50.950;5.346;2023-01-25T09:18:40;2.80;33.70
33903;DHT22;20194;50.950;5.346;2023-01-25T09:23:32;3.00;29.50
33903;DHT22;20194;50.950;5.346;2023-01-25T09:26:00;3.00;29.30
33903;DHT22;20194;50.950;5.346;2023-01-25T09:28:27;3.00;30.00
33903;DHT22;20194;50.950;5.346;2023-01-25T09:30:59;3.00;31.20
33903;DHT22;20194;50.950;5.346;2023-01-25T09:33:30;3.10;31.20
33903;DHT22;20194;50.950;5.346;2023-01-25T09:35:56;3.00;29.20
33903;DHT22;20194;50.950;5.346;2023-01-25T09:38:22;2.90;31.90
33903;DHT22;20194;50.950;5.346;2023-01-25T09:41:01;2.80;32.70
33903;DHT22;20194;50.950;5.346;2023-01-25T09:43:51;3.00;33.60
33903;DHT22;20194;50.950;5.346;2023-01-25T09:54:09;3.50;26.20
33903;DHT22;20194;50.950;5.346;2023-01-25T09:56:37;3.70;24.60
33903;DHT22;20194;50.950;5.346;2023-01-25T09:59:10;3.60;19.50
33903;DHT22;20194;50.950;5.346;2023-01-25T10:01:48;2.50;30.20
33903;DHT22;20194;50.950;5.346;2023-01-25T10:04:24;2.10;41.10
33903;DHT22;20194;50.950;5.346;2023-01-25T10:06:58;2.40;40.20
33903;DHT22;20194;50.950;5.346;2023-01-25T10:09:36;2.50;39.80
33903;DHT22;20194;50.950;5.346;2023-01-25T10:12:24;2.80;37.80
33903;DHT22;20194;50.950;5.346;2023-01-25T10:14:51;3.10;34.60
33903;DHT22;20194;50.950;5.346;2023-01-25T10:22:45;3.30;26.10
33903;DHT22;20194;50.950;5.346;2023-01-25T10:31:21;3.60;20.50
33903;DHT22;20194;50.950;5.346;2023-01-25T10:33:52;3.60;21.70
33903;DHT22;20194;50.950;5.346;2023-01-25T10:36:28;3.50;20.00
33903;DHT22;20194;50.950;5.346;2023-01-25T10:38:54;3.20;23.50
33903;DHT22;20194;50.950;5.346;2023-01-25T10:43:54;3.20;26.20
33903;DHT22;20194;50.950;5.346;2023-01-25T10:46:48;3.30;26.10
33903;DHT22;20194;50.950;5.346;2023-01-25T10:51:45;3.50;24.40
33903;DHT22;20194;50.950;5.346;2023-01-25T10:54:14;3.60;22.80
33903;DHT22;20194;50.950;5.346;2023-01-25T10:56:41;3.50;20.70
33903;DHT22;20194;50.950;5.346;2023-01-25T10:59:15;3.70;21.10
33903;DHT22;20194;50.950;5.346;2023-01-25T11:01:42;3.30;18.70
33903;DHT22;20194;50.950;5.346;2023-01-25T11:06:55;3.40;22.00
33903;DHT22;20194;50.950;5.346;2023-01-25T11:11:59;2.60;31.00
33903;DHT22;20194;50.950;5.346;2023-01-25T11:14:28;2.60;30.00
33903;DHT22;20194;50.950;5.346;2023-01-25T11:16:57;2.80;30.90
33903;DHT22;20194;50.950;5.346;2023-01-25T11:19:38;2.90;28.10
33903;DHT22;20194;50.950;5.346;2023-01-25T11:22:24;3.00;27.10
33903;DHT22;20194;50.950;5.346;2023-01-25T11:24:50;3.20;27.20
33903;DHT22;20194;50.950;5.346;2023-01-25T11:27:20;3.00;24.20
33903;DHT22;20194;50.950;5.346;2023-01-25T11:32:31;3.30;20.30
33903;DHT22;20194;50.950;5.346;2023-01-25T11:34:57;3.30;21.80
33903;DHT22;20194;50.950;5.346;2023-01-25T11:37:26;3.20;19.20
33903;DHT22;20194;50.950;5.346;2023-01-25T11:45:40;2.80;24.20
33903;DHT22;20194;50.950;5.346;2023-01-25T11:48:47;2.90;24.90
33903;DHT22;20194;50.950;5.346;2023-01-25T11:54:15;3.20;24.60
33903;DHT22;20194;50.950;5.346;2023-01-25T11:56:59;3.10;21.30
33903;DHT22;20194;50.950;5.346;2023-01-25T11:59:29;2.60;24.10
33903;DHT22;20194;50.950;5.346;2023-01-25T12:02:20;2.50;29.60
33903;DHT22;20194;50.950;5.346;2023-01-25T12:10:28;2.70;26.70
33903;DHT22;20194;50.950;5.346;2023-01-25T12:18:23;2.50;29.90
33903;DHT22;20194;50.950;5.346;2023-01-25T12:29:24;2.30;30.00
33903;DHT22;20194;50.950;5.346;2023-01-25T12:32:12;2.30;29.70
33903;DHT22;20194;50.950;5.346;2023-01-25T12:34:57;2.20;32.70
33903;DHT22;20194;50.950;5.346;2023-01-25T12:37:30;2.20;33.20
33903;DHT22;20194;50.950;5.346;2023-01-25T12:40:08;2.50;34.30
33903;DHT22;20194;50.950;5.346;2023-01-25T12:42:51;2.70;31.30
33903;DHT22;20194;50.950;5.346;2023-01-25T12:45:32;2.60;28.40
33903;DHT22;20194;50.950;5.346;2023-01-25T12:48:04;2.50;34.00
33903;DHT22;20194;50.950;5.346;2023-01-25T12:50:40;2.70;29.90
33903;DHT22;20194;50.950;5.346;2023-01-25T12:53:12;2.50;29.00
33903;DHT22;20194;50.950;5.346;2023-01-25T12:55:40;2.60;34.60
33903;DHT22;20194;50.950;5.346;2023-01-25T12:58:20;2.60;31.90
33903;DHT22;20194;50.950;5.346;2023-01-25T13:11:49;3.00;27.30
33903;DHT22;20194;50.950;5.346;2023-01-25T13:16:47;2.90;28.30
33903;DHT22;20194;50.950;5.346;2023-01-25T13:21:55;2.30;32.00
33903;DHT22;20194;50.950;5.346;2023-01-25T13:24:33;1.90;37.70
33903;DHT22;20194;50.950;5.346;2023-01-25T13:27:25;2.10;41.40
33903;DHT22;20194;50.950;5.346;2023-01-25T13:29:58;2.10;39.80
33903;DHT22;20194;50.950;5.346;2023-01-25T13:37:31;2.40;35.40
33903;DHT22;20194;50.950;5.346;2023-01-25T13:43:31;2.80;31.60
33903;DHT22;20194;50.950;5.346;2023-01-25T13:45:52;2.80;29.30
33903;DHT22;20194;50.950;5.346;2023-01-25T13:48:20;2.40;32.00
33903;DHT22;20194;50.950;5.346;2023-01-25T13:50:50;2.50;36.80
33903;DHT22;20194;50.950;5.346;2023-01-25T13:55:46;2.80;31.20
33903;DHT22;20194;50.950;5.346;2023-01-25T13:58:16;2.70;29.50
33903;DHT22;20194;50.950;5.346;2023-01-25T14:00:58;2.50;31.90
33903;DHT22;20194;50.950;5.346;2023-01-25T14:03:29;2.60;37.60
33903;DHT22;20194;50.950;5.346;2023-01-25T14:05:57;2.50;32.70
33903;DHT22;20194;50.950;5.346;2023-01-25T14:08:25;2.50;36.90
33903;DHT22;20194;50.950;5.346;2023-01-25T14:10:52;2.70;33.30
33903;DHT22;20194;50.950;5.346;2023-01-25T14:13:18;2.80;32.30
33903;DHT22;20194;50.950;5.346;2023-01-25T14:16:10;2.90;29.50
33903;DHT22;20194;50.950;5.346;2023-01-25T14:18:36;3.00;27.20
33903;DHT22;20194;50.950;5.346;2023-01-25T14:21:13;2.70;30.50
33903;DHT22;20194;50.950;5.346;2023-01-25T14:23:39;2.30;33.10
33903;DHT22;20194;50.950;5.346;2023-01-25T14:26:22;2.40;36.60
33903;DHT22;20194;50.950;5.346;2023-01-25T14:28:54;2.50;33.20
33903;DHT22;20194;50.950;5.346;2023-01-25T14:31:36;2.20;33.00
33903;DHT22;20194;50.950;5.346;2023-01-25T14:34:02;2.10;38.00
33903;DHT22;20194;50.950;5.346;2023-01-25T14:36:31;2.30;37.50
33903;DHT22;20194;50.950;5.346;2023-01-25T14:38:59;2.40;34.80
33903;DHT22;20194;50.950;5.346;2023-01-25T14:41:28;2.30;36.70
33903;DHT22;20194;50.950;5.346;2023-01-25T14:43:56;2.40;34.40
33903;DHT22;20194;50.950;5.346;2023-01-25T14:46:33;2.50;33.30
33903;DHT22;20194;50.950;5.346;2023-01-25T14:49:23;2.50;28.80
33903;DHT22;20194;50.950;5.346;2023-01-25T14:52:07;2.40;32.80
33903;DHT22;20194;50.950;5.346;2023-01-25T14:55:08;2.30;34.00
33903;DHT22;20194;50.950;5.346;2023-01-25T14:57:36;1.80;39.00
33903;DHT22;20194;50.950;5.346;2023-01-25T15:00:18;1.60;43.50
33903;DHT22;20194;50.950;5.346;2023-01-25T15:05:24;1.50;46.00
33903;DHT22;20194;50.950;5.346;2023-01-25T15:08:12;1.50;46.90
33903;DHT22;20194;50.950;5.346;2023-01-25T15:10:50;1.40;47.70
33903;DHT22;20194;50.950;5.346;2023-01-25T15:13:20;1.50;49.00
33903;DHT22;20194;50.950;5.346;2023-01-25T15:21:31;1.80;48.10
33903;DHT22;20194;50.950;5.346;2023-01-25T15:24:02;1.70;41.10
33903;DHT22;20194;50.950;5.346;2023-01-25T15:26:35;1.80;43.50
33903;DHT22;20194;50.950;5.346;2023-01-25T15:29:12;1.70;38.20
33903;DHT22;20194;50.950;5.346;2023-01-25T15:31:38;2.00;40.50
33903;DHT22;20194;50.950;5.346;2023-01-25T15:34:04;2.10;34.10
33903;DHT22;20194;50.950;5.346;2023-01-25T15:36:31;2.30;34.20
33903;DHT22;20194;50.950;5.346;2023-01-25T15:38:58;2.10;31.80
33903;DHT22;20194;50.950;5.346;2023-01-25T15:41:24;1.90;33.40
33903;DHT22;20194;50.950;5.346;2023-01-25T15:43:50;1.60;41.60
33903;DHT22;20194;50.950;5.346;2023-01-25T15:46:25;1.60;41.10
33903;DHT22;20194;50.950;5.346;2023-01-25T15:48:52;1.80;43.90
33903;DHT22;20194;50.950;5.346;2023-01-25T15:51:18;1.90;39.50
33903;DHT22;20194;50.950;5.346;2023-01-25T15:53:44;2.10;39.60
33903;DHT22;20194;50.950;5.346;2023-01-25T15:56:36;2.40;36.50
33903;DHT22;20194;50.950;5.346;2023-01-25T15:59:06;2.50;31.00
33903;DHT22;20194;50.950;5.346;2023-01-25T16:01:33;2.50;28.90
33903;DHT22;20194;50.950;5.346;2023-01-25T16:03:59;2.60;28.00
33903;DHT22;20194;50.950;5.346;2023-01-25T16:06:32;2.40;29.00
33903;DHT22;20194;50.950;5.346;2023-01-25T16:08:59;2.40;29.30
33903;DHT22;20194;50.950;5.346;2023-01-25T16:11:26;2.30;31.30
33903;DHT22;20194;50.950;5.346;2023-01-25T16:13:51;2.40;31.10
33903;DHT22;20194;50.950;5.346;2023-01-25T16:16:22;2.10;31.60
33903;DHT22;20194;50.950;5.346;2023-01-25T16:18:49;2.00;35.30
33903;DHT22;20194;50.950;5.346;2023-01-25T16:21:15;1.50;38.50
33903;DHT22;20194;50.950;5.346;2023-01-25T16:23:41;1.60;41.50
33903;DHT22;20194;50.950;5.346;2023-01-25T16:26:42;1.70;41.70
33903;DHT22;20194;50.950;5.346;2023-01-25T16:29:10;2.00;38.70
33903;DHT22;20194;50.950;5.346;2023-01-25T16:31:36;2.20;34.00
33903;DHT22;20194;50.950;5.346;2023-01-25T16:34:02;2.30;29.70
33903;DHT22;20194;50.950;5.346;2023-01-25T16:36:28;2.20;27.70
33903;DHT22;20194;50.950;5.346;2023-01-25T16:38:54;2.30;28.20
33903;DHT22;20194;50.950;5.346;2023-01-25T16:41:20;2.40;28.50
33903;DHT22;20194;50.950;5.346;2023-01-25T16:43:47;2.50;25.30
33903;DHT22;20194;50.950;5.346;2023-01-25T16:46:19;2.40;24.40
33903;DHT22;20194;50.950;5.346;2023-01-25T16:48:47;2.30;24.60
33903;DHT22;20194;50.950;5.346;2023-01-25T16:51:20;2.20;28.90
33903;DHT22;20194;50.950;5.346;2023-01-25T16:53:47;2.30;27.00
33903;DHT22;20194;50.950;5.346;2023-01-25T16:56:18;2.20;26.30
33903;DHT22;20194;50.950;5.346;2023-01-25T16:58:45;2.30;29.30
33903;DHT22;20194;50.950;5.346;2023-01-25T17:01:12;2.40;27.80
33903;DHT22;20194;50.950;5.346;2023-01-25T17:03:38;2.40;24.30
33903;DHT22;20194;50.950;5.346;2023-01-25T17:06:04;1.90;27.30
33903;DHT22;20194;50.950;5.346;2023-01-25T17:08:30;1.70;30.90
33903;DHT22;20194;50.950;5.346;2023-01-25T17:11:04;1.90;31.50
33903;DHT22;20194;50.950;5.346;2023-01-25T17:13:31;1.90;28.30
33903;DHT22;20194;50.950;5.346;2023-01-25T17:15:57;1.70;29.90
33903;DHT22;20194;50.950;5.346;2023-01-25T17:18:23;1.60;33.20
33903;DHT22;20194;50.950;5.346;2023-01-25T17:20:59;1.50;33.50
33903;DHT22;20194;50.950;5.346;2023-01-25T17:23:25;1.50;38.10
33903;DHT22;20194;50.950;5.346;2023-01-25T17:25:53;1.50;36.10
33903;DHT22;20194;50.950;5.346;2023-01-25T17:28:20;1.30;35.80
33903;DHT22;20194;50.950;5.346;2023-01-25T17:30:46;1.20;38.60
33903;DHT22;20194;50.950;5.346;2023-01-25T17:33:11;1.10;41.00
33903;DHT22;20194;50.950;5.346;2023-01-25T17:35:38;1.10;41.60
33903;DHT22;20194;50.950;5.346;2023-01-25T17:38:04;1.20;41.30
33903;DHT22;20194;50.950;5.346;2023-01-25T17:40:30;1.00;37.20
33903;DHT22;20194;50.950;5.346;2023-01-25T17:42:55;1.00;40.10
33903;DHT22;20194;50.950;5.346;2023-01-25T17:45:21;1.00;36.90
33903;DHT22;20194;50.950;5.346;2023-01-25T17:47:47;1.10;38.00